Winslow, Texas
Current Conditions -  °F | °C
As of 10:55 AM on Saturday 22 Nov 2014 (Local Time) from KINJ Reporting Station
Thunderstorm Thunderstorm  
Wind Chill: 62°   Ceiling: 300
Heat Index: 62°   Visibility: 3mi
Dew Point: 59°   Wind: 13mph
Humidity: 91%   Direction: 130°SE
Pressure: 30"   Gusts: 17mph
Location:  32.0499°N, 97.1039°W
Report Text: KINJ 221655Z AUTO 13011G15KT 3SM VCTS BR OVC003 17/15 A3000 RMK AO2 LTG DSNT W THRU N T01650151
Loading
Personal Weather Stations






























Interactive Weather Map New forecast layout! Learn more

10-Day Weather Forecast

Advertisements
Track Severe Weather on mobile